Time;durP1;ratioP1;P1;durP2;ratioP2;P2;SDS_P1;SDS_P2;PMS_P1;PMS_P2;Temp;Humidity;BMP_temperature;BMP_pressure;BME280_temperature;BME280_humidity;BME280_pressure;Samples;Min_cycle;Max_cycle;Signal;HPM_P1;HPM_P2
2021/12/03 00:00:57;;;;;;;8.63;5.40;;;0.90;99.90;;;;;;5042256;28;20036;-68
2021/12/03 00:03:24;;;;;;;9.02;4.80;;;0.90;99.90;;;;;;5024542;28;20017;-68
2021/12/03 00:05:51;;;;;;;7.18;4.07;;;0.90;99.90;;;;;;5036232;28;20108;-68
2021/12/03 00:08:18;;;;;;;7.25;4.68;;;0.80;99.90;;;;;;5036864;28;20032;-67
2021/12/03 00:10:49;;;;;;;7.35;5.38;;;0.80;99.90;;;;;;5039988;28;20393;-67
2021/12/03 00:13:15;;;;;;;7.97;4.95;;;0.80;99.90;;;;;;5033734;28;20029;-67
2021/12/03 00:15:40;;;;;;;11.25;4.82;;;0.80;99.90;;;;;;5035940;28;20043;-66
2021/12/03 00:18:06;;;;;;;8.25;4.75;;;0.80;99.90;;;;;;5031545;28;20037;-66
2021/12/03 00:20:36;;;;;;;8.75;4.65;;;0.80;99.90;;;;;;5021111;28;20021;-68
2021/12/03 00:23:03;;;;;;;9.05;4.57;;;0.70;99.90;;;;;;5016526;28;20160;-71
2021/12/03 00:25:29;;;;;;;6.70;3.95;;;0.70;99.90;;;;;;5018996;28;20040;-67
2021/12/03 00:27:55;;;;;;;11.48;5.03;;;0.60;99.90;;;;;;5027435;28;20050;-66
2021/12/03 00:30:21;;;;;;;7.03;4.50;;;0.60;99.90;;;;;;5015722;28;20110;-67
2021/12/03 00:32:48;;;;;;;6.68;5.20;;;0.50;99.90;;;;;;5019140;28;20033;-66
2021/12/03 00:35:17;;;;;;;6.57;5.00;;;0.50;99.90;;;;;;5017583;28;20033;-67
2021/12/03 00:37:44;;;;;;;8.95;5.07;;;0.50;99.90;;;;;;5016756;28;20029;-67
2021/12/03 00:40:12;;;;;;;5.78;4.50;;;0.40;99.90;;;;;;5013451;28;20599;-67
2021/12/03 00:42:39;;;;;;;7.90;5.03;;;0.40;99.90;;;;;;5015614;28;20561;-67
2021/12/03 00:45:06;;;;;;;7.80;4.50;;;0.40;99.90;;;;;;5000970;28;20499;-67
2021/12/03 00:47:32;;;;;;;9.60;5.45;;;0.30;99.90;;;;;;5018465;28;20590;-67
2021/12/03 00:49:58;;;;;;;6.60;4.03;;;0.30;99.90;;;;;;5019764;28;20135;-71
2021/12/03 00:52:23;;;;;;;7.70;4.47;;;0.20;99.90;;;;;;5017034;28;20735;-67
2021/12/03 00:54:49;;;;;;;6.95;4.72;;;0.30;99.90;;;;;;5018553;28;20112;-67
2021/12/03 00:57:16;;;;;;;6.72;5.45;;;0.30;99.90;;;;;;5019767;28;20243;-67
2021/12/03 00:59:41;;;;;;;5.65;4.68;;;0.30;99.90;;;;;;5019447;28;20021;-68
2021/12/03 01:02:07;;;;;;;8.85;5.03;;;0.30;99.90;;;;;;5014227;28;20096;-68
2021/12/03 01:04:33;;;;;;;5.45;3.92;;;0.30;99.90;;;;;;5018667;28;20025;-67
2021/12/03 01:06:59;;;;;;;6.35;4.38;;;0.30;99.90;;;;;;5018056;28;20034;-68
2021/12/03 01:09:25;;;;;;;10.05;4.47;;;0.30;99.90;;;;;;5018630;28;20040;-67
2021/12/03 01:11:51;;;;;;;6.25;4.70;;;0.30;99.90;;;;;;5014183;28;20100;-68
2021/12/03 01:14:18;;;;;;;8.02;5.13;;;0.30;99.90;;;;;;5017316;28;20036;-68
2021/12/03 01:16:44;;;;;;;8.30;4.00;;;0.20;99.90;;;;;;5021338;28;20534;-67
2021/12/03 01:19:10;;;;;;;7.82;4.57;;;0.20;99.90;;;;;;5018577;28;20079;-67
2021/12/03 01:21:37;;;;;;;5.90;4.13;;;0.10;99.90;;;;;;5036438;28;20481;-67
2021/12/03 01:24:04;;;;;;;6.07;3.90;;;0.20;99.90;;;;;;5018605;28;20168;-68
2021/12/03 01:26:30;;;;;;;5.07;3.30;;;0.10;99.90;;;;;;5017752;28;20155;-67
2021/12/03 01:28:56;;;;;;;7.45;3.92;;;0.10;99.90;;;;;;5038933;28;20083;-67
2021/12/03 01:31:22;;;;;;;7.65;4.47;;;0.10;99.90;;;;;;5033336;28;22194;-67
2021/12/03 01:33:48;;;;;;;5.70;4.38;;;0.10;99.90;;;;;;5039997;28;20484;-67
2021/12/03 01:36:14;;;;;;;7.82;5.50;;;0.10;99.90;;;;;;5041965;28;21201;-67
2021/12/03 01:38:40;;;;;;;6.45;4.28;;;0.20;99.90;;;;;;5034306;28;20056;-67
2021/12/03 01:41:06;;;;;;;6.40;3.83;;;0.30;99.90;;;;;;5021268;28;20021;-67
2021/12/03 01:43:32;;;;;;;5.28;3.65;;;0.30;99.90;;;;;;5020438;28;21020;-67
2021/12/03 01:46:03;;;;;;;7.45;4.53;;;0.30;99.90;;;;;;5036015;28;20520;-67
2021/12/03 01:48:30;;;;;;;6.68;3.97;;;0.30;99.90;;;;;;5040216;28;20037;-67
2021/12/03 01:50:56;;;;;;;8.30;4.78;;;0.30;99.90;;;;;;5040266;28;20134;-67
2021/12/03 01:53:25;;;;;;;6.28;4.03;;;0.30;99.90;;;;;;5035383;28;20029;-68
2021/12/03 01:55:54;;;;;;;5.18;3.70;;;0.30;99.90;;;;;;5036726;28;20025;-68
2021/12/03 01:58:20;;;;;;;9.35;4.90;;;0.30;99.90;;;;;;5037257;28;20025;-68
2021/12/03 02:00:55;;;;;;;6.85;4.05;;;0.30;99.90;;;;;;5025603;28;20048;-67
2021/12/03 02:03:23;;;;;;;7.18;4.68;;;0.30;99.90;;;;;;5036976;28;20477;-67
2021/12/03 02:05:50;;;;;;;6.45;3.80;;;0.30;99.90;;;;;;5035218;28;20021;-67
2021/12/03 02:08:17;;;;;;;5.25;3.42;;;0.30;99.90;;;;;;5035307;28;20112;-67
2021/12/03 02:10:43;;;;;;;6.85;4.03;;;0.30;99.90;;;;;;5039213;28;20021;-67
2021/12/03 02:13:11;;;;;;;5.15;4.25;;;0.30;99.90;;;;;;5033344;28;20063;-67
2021/12/03 02:15:37;;;;;;;7.20;3.50;;;0.20;99.90;;;;;;5038948;28;20055;-67
2021/12/03 02:18:04;;;;;;;5.00;3.10;;;0.20;99.90;;;;;;5030869;28;20041;-67
2021/12/03 02:20:30;;;;;;;4.07;2.42;;;0.20;99.90;;;;;;5023690;28;20025;-67
2021/12/03 02:22:55;;;;;;;6.05;3.30;;;0.20;99.90;;;;;;5019041;28;20030;-67
2021/12/03 02:25:23;;;;;;;4.03;2.97;;;0.20;99.90;;;;;;5019375;28;20798;-67
2021/12/03 02:27:51;;;;;;;4.67;3.40;;;0.30;99.90;;;;;;5010798;28;20538;-67
2021/12/03 02:30:18;;;;;;;4.93;2.90;;;0.30;99.90;;;;;;5003894;28;20039;-67
2021/12/03 02:32:46;;;;;;;11.82;4.57;;;0.30;99.90;;;;;;5019931;28;20038;-67
2021/12/03 02:35:12;;;;;;;5.00;3.92;;;0.30;99.90;;;;;;5019820;28;20090;-67
2021/12/03 02:37:37;;;;;;;6.03;3.83;;;0.30;99.90;;;;;;5025066;28;20022;-67
2021/12/03 02:40:05;;;;;;;10.00;4.72;;;0.40;99.90;;;;;;5019851;28;20033;-67
2021/12/03 02:42:32;;;;;;;6.65;3.67;;;0.30;99.90;;;;;;5021886;28;22190;-66
2021/12/03 02:44:57;;;;;;;5.53;4.40;;;0.30;99.90;;;;;;5003564;28;20040;-67
2021/12/03 02:47:23;;;;;;;6.25;3.83;;;0.40;99.90;;;;;;5000097;28;20029;-67
2021/12/03 02:49:49;;;;;;;5.85;3.80;;;0.40;99.90;;;;;;5021438;28;20577;-66
2021/12/03 02:52:14;;;;;;;7.15;4.07;;;0.40;99.90;;;;;;5022673;28;20037;-67
2021/12/03 02:54:40;;;;;;;5.50;4.05;;;0.40;99.90;;;;;;5024428;28;20131;-67
2021/12/03 02:57:06;;;;;;;8.27;4.10;;;0.40;99.90;;;;;;5019638;28;20056;-67
2021/12/03 02:59:33;;;;;;;7.80;4.38;;;0.40;99.90;;;;;;5019699;28;20072;-67
2021/12/03 03:01:59;;;;;;;6.20;4.18;;;0.40;99.90;;;;;;5017644;28;20463;-67
2021/12/03 03:04:26;;;;;;;6.68;3.95;;;0.40;99.90;;;;;;5018580;28;20033;-66
2021/12/03 03:06:51;;;;;;;4.65;3.70;;;0.40;99.90;;;;;;5015871;28;20029;-66
2021/12/03 03:09:17;;;;;;;6.05;3.42;;;0.40;99.90;;;;;;5021122;28;20040;-67
2021/12/03 03:11:43;;;;;;;6.63;3.60;;;0.40;99.90;;;;;;5021654;28;20030;-66
2021/12/03 03:14:09;;;;;;;6.40;3.58;;;0.40;99.90;;;;;;5016402;28;20030;-67
2021/12/03 03:16:35;;;;;;;5.50;3.78;;;0.40;99.90;;;;;;5019342;28;20654;-66
2021/12/03 03:19:09;;;;;;;7.68;3.97;;;0.40;99.90;;;;;;5021635;28;20057;-67
2021/12/03 03:21:35;;;;;;;6.85;3.65;;;0.40;99.90;;;;;;5027926;28;20030;-67
2021/12/03 03:24:01;;;;;;;6.50;4.07;;;0.30;99.90;;;;;;5019432;28;20033;-67
2021/12/03 03:26:28;;;;;;;6.57;4.32;;;0.30;99.90;;;;;;5016171;28;20112;-67
2021/12/03 03:28:57;;;;;;;4.25;3.00;;;0.30;99.90;;;;;;5006477;28;20060;-67
2021/12/03 03:31:23;;;;;;;4.22;3.00;;;0.30;99.90;;;;;;5017190;28;20156;-68
2021/12/03 03:33:48;;;;;;;4.97;3.88;;;0.30;99.90;;;;;;5019920;28;20033;-67
2021/12/03 03:36:14;;;;;;;6.05;3.38;;;0.30;99.90;;;;;;5020607;28;20490;-67
2021/12/03 03:38:40;;;;;;;5.93;2.92;;;0.30;99.90;;;;;;5018080;28;20033;-67
2021/12/03 03:41:05;;;;;;;5.57;4.47;;;0.40;99.90;;;;;;5016336;28;20084;-66
2021/12/03 03:43:31;;;;;;;5.55;3.67;;;0.40;99.90;;;;;;5018549;28;20029;-67
2021/12/03 03:45:57;;;;;;;9.68;4.82;;;0.40;99.90;;;;;;5032262;28;20067;-67
2021/12/03 03:48:24;;;;;;;5.70;4.07;;;0.40;99.90;;;;;;5017890;28;20048;-67
2021/12/03 03:50:51;;;;;;;8.30;5.28;;;0.30;99.90;;;;;;5022602;28;20378;-67
2021/12/03 03:53:17;;;;;;;7.53;6.75;;;0.30;99.90;;;;;;5033561;28;20129;-67
2021/12/03 03:55:45;;;;;;;9.07;4.20;;;0.40;99.90;;;;;;5024371;28;20033;-66
2021/12/03 03:58:10;;;;;;;6.60;4.28;;;0.30;99.90;;;;;;5018338;28;20389;-67
2021/12/03 04:00:40;;;;;;;11.65;3.75;;;0.30;99.90;;;;;;5007261;28;20034;-68
2021/12/03 04:03:07;;;;;;;5.80;3.67;;;0.20;99.90;;;;;;5002939;28;20029;-68
2021/12/03 04:05:33;;;;;;;5.25;2.92;;;0.20;99.90;;;;;;5016701;28;20033;-68
2021/12/03 04:07:59;;;;;;;5.20;3.88;;;0.30;99.90;;;;;;5017353;28;20029;-66
2021/12/03 04:10:25;;;;;;;3.80;3.05;;;0.20;99.90;;;;;;5001153;28;20037;-66
2021/12/03 04:12:50;;;;;;;4.85;2.85;;;0.10;99.90;;;;;;5019427;28;20394;-66
2021/12/03 04:15:17;;;;;;;4.55;3.35;;;0.00;99.90;;;;;;5016340;28;20103;-68
2021/12/03 04:17:43;;;;;;;5.57;3.40;;;0.00;99.90;;;;;;5030099;28;20044;-68
2021/12/03 04:20:11;;;;;;;4.60;3.72;;;0.00;99.90;;;;;;5035219;28;20486;-69
2021/12/03 04:22:37;;;;;;;4.88;4.03;;;0.00;99.90;;;;;;5037732;28;20573;-68
2021/12/03 04:25:06;;;;;;;6.15;3.88;;;-0.10;99.90;;;;;;5035392;28;20041;-67
2021/12/03 04:27:32;;;;;;;9.00;3.85;;;-0.10;99.90;;;;;;5027187;28;21665;-67
2021/12/03 04:29:58;;;;;;;4.32;2.95;;;-0.20;99.90;;;;;;5024705;28;20116;-67
2021/12/03 04:32:25;;;;;;;4.63;3.80;;;-0.20;99.90;;;;;;5038145;28;20613;-68
2021/12/03 04:34:52;;;;;;;6.65;3.97;;;-0.20;99.90;;;;;;5035697;28;20100;-68
2021/12/03 04:37:18;;;;;;;5.78;3.45;;;-0.20;99.90;;;;;;5036767;28;20013;-67
2021/12/03 04:39:44;;;;;;;5.05;3.67;;;-0.40;99.90;;;;;;5034771;28;20379;-67
2021/12/03 04:42:09;;;;;;;6.10;3.58;;;-0.40;99.90;;;;;;5038185;28;20020;-68
2021/12/03 04:44:37;;;;;;;12.32;4.18;;;-0.40;99.90;;;;;;5038282;28;20056;-68
2021/12/03 04:47:03;;;;;;;3.72;3.10;;;-0.40;99.90;;;;;;5033960;28;20033;-68
2021/12/03 04:49:30;;;;;;;6.43;3.42;;;-0.40;99.90;;;;;;5019703;28;20436;-68
2021/12/03 04:51:56;;;;;;;6.35;3.92;;;-0.50;99.90;;;;;;5036336;28;20029;-67
2021/12/03 04:54:22;;;;;;;5.30;3.38;;;-0.50;99.90;;;;;;5034298;28;20494;-67
2021/12/03 04:56:48;;;;;;;3.97;2.80;;;-0.50;99.90;;;;;;5036621;28;20117;-67
2021/12/03 04:59:14;;;;;;;8.43;3.30;;;-0.50;99.90;;;;;;5040976;28;21068;-67
2021/12/03 05:01:40;;;;;;;5.63;3.47;;;-0.50;99.90;;;;;;5038713;28;20052;-67
2021/12/03 05:04:06;;;;;;;5.38;4.18;;;-0.50;99.90;;;;;;5037976;28;20037;-68
2021/12/03 05:06:52;;;;;;;6.65;3.85;;;-0.60;99.90;;;;;;5035704;28;20929;-68
2021/12/03 05:09:17;;;;;;;6.55;3.90;;;-0.60;99.90;;;;;;5035967;28;20044;-68
2021/12/03 05:11:43;;;;;;;9.65;4.28;;;-0.60;99.90;;;;;;5034713;28;20033;-67
2021/12/03 05:14:09;;;;;;;5.50;3.88;;;-0.50;99.90;;;;;;5037136;28;20125;-68
2021/12/03 05:16:34;;;;;;;4.68;3.70;;;-0.50;99.90;;;;;;5035944;28;20210;-67
2021/12/03 05:19:00;;;;;;;5.45;3.92;;;-0.60;99.90;;;;;;5041455;28;21008;-67
2021/12/03 05:21:26;;;;;;;4.85;3.80;;;-0.60;99.90;;;;;;5038552;28;20021;-68
2021/12/03 05:23:51;;;;;;;7.15;3.25;;;-0.70;99.90;;;;;;5019464;28;20036;-68
2021/12/03 05:26:17;;;;;;;5.68;3.78;;;-0.70;99.90;;;;;;5036199;28;20036;-68
2021/12/03 05:28:43;;;;;;;5.18;3.35;;;-0.70;99.90;;;;;;5036174;28;20490;-67
2021/12/03 05:31:08;;;;;;;4.28;3.38;;;-0.70;99.90;;;;;;5034606;28;20041;-67
2021/12/03 05:33:34;;;;;;;5.97;4.05;;;-0.70;99.90;;;;;;5042501;28;20032;-67
2021/12/03 05:36:00;;;;;;;5.15;3.55;;;-0.70;99.90;;;;;;5018817;28;20029;-67
2021/12/03 05:38:25;;;;;;;4.05;3.60;;;-0.70;99.90;;;;;;5037295;28;20041;-67
2021/12/03 05:40:51;;;;;;;6.50;3.85;;;-0.70;99.90;;;;;;5019949;28;20048;-67
2021/12/03 05:43:17;;;;;;;6.00;3.63;;;-0.70;99.90;;;;;;5033307;28;20661;-68
2021/12/03 05:45:44;;;;;;;7.88;4.28;;;-0.70;99.90;;;;;;5037436;28;20573;-68
2021/12/03 05:48:11;;;;;;;8.85;4.38;;;-0.70;99.90;;;;;;5017876;28;20032;-68
2021/12/03 05:50:37;;;;;;;5.07;4.07;;;-0.80;99.90;;;;;;5036551;28;20025;-67
2021/12/03 05:53:04;;;;;;;6.93;5.28;;;-0.70;99.90;;;;;;5040616;28;20509;-67
2021/12/03 05:55:30;;;;;;;17.55;11.88;;;-0.70;99.90;;;;;;5041125;28;20036;-67
2021/12/03 05:57:56;;;;;;;18.13;11.80;;;-0.70;99.90;;;;;;5023148;28;20025;-67
2021/12/03 06:00:26;;;;;;;9.50;6.22;;;-0.70;99.90;;;;;;5041267;28;20021;-67
2021/12/03 06:02:53;;;;;;;8.43;5.70;;;-0.60;99.90;;;;;;5041407;28;20029;-67
2021/12/03 06:05:21;;;;;;;9.77;6.47;;;-0.60;99.90;;;;;;5023549;28;20397;-67
2021/12/03 06:07:47;;;;;;;14.77;9.18;;;-0.60;99.90;;;;;;5038472;28;20037;-68
2021/12/03 06:10:12;;;;;;;16.88;8.68;;;-0.60;99.90;;;;;;5047183;28;20034;-67
2021/12/03 06:12:38;;;;;;;14.32;9.35;;;-0.60;99.90;;;;;;5036827;28;20051;-67
2021/12/03 06:15:04;;;;;;;7.65;5.57;;;-0.60;99.90;;;;;;5042283;28;20142;-67
2021/12/03 06:17:29;;;;;;;7.70;5.43;;;-0.60;99.90;;;;;;5041565;28;20403;-67
2021/12/03 06:19:55;;;;;;;12.27;4.57;;;-0.60;99.90;;;;;;5022853;28;20029;-67
2021/12/03 06:22:21;;;;;;;6.95;4.60;;;-0.60;99.90;;;;;;5039931;28;20111;-67
2021/12/03 06:24:47;;;;;;;11.55;3.92;;;-0.60;99.90;;;;;;5043273;28;20044;-68
2021/12/03 06:27:12;;;;;;;6.30;4.20;;;-0.60;99.90;;;;;;5037145;28;20890;-67
2021/12/03 06:29:38;;;;;;;7.10;4.38;;;-0.60;99.90;;;;;;5039710;28;20125;-68
2021/12/03 06:32:04;;;;;;;3.53;2.80;;;-0.50;99.90;;;;;;5039619;28;20037;-68
2021/12/03 06:34:30;;;;;;;6.78;4.18;;;-0.50;99.90;;;;;;5038640;28;20433;-68
2021/12/03 06:36:55;;;;;;;6.10;3.97;;;-0.50;99.90;;;;;;5037899;28;20028;-67
2021/12/03 06:39:21;;;;;;;6.63;3.65;;;-0.60;99.90;;;;;;5038707;28;20033;-67
2021/12/03 06:41:47;;;;;;;6.00;4.55;;;-0.60;99.90;;;;;;5040089;28;20100;-67
2021/12/03 06:44:13;;;;;;;6.60;4.30;;;-0.60;99.90;;;;;;5042158;28;20033;-68
2021/12/03 06:46:39;;;;;;;7.05;4.00;;;-0.50;99.90;;;;;;5027408;28;20029;-67
2021/12/03 06:49:04;;;;;;;4.00;3.58;;;-0.60;99.90;;;;;;5046070;28;20094;-69
2021/12/03 06:51:31;;;;;;;5.43;3.83;;;-0.60;99.90;;;;;;5045827;28;20798;-67
2021/12/03 06:54:03;;;;;;;7.90;4.68;;;-0.60;99.90;;;;;;5042586;28;20080;-67
2021/12/03 06:56:48;;;;;;;10.98;4.18;;;-0.60;99.90;;;;;;5040083;28;20032;-68
2021/12/03 06:59:15;;;;;;;6.15;3.70;;;-0.70;99.90;;;;;;5046667;28;20116;-67
2021/12/03 07:01:41;;;;;;;5.53;3.70;;;-0.70;99.90;;;;;;5049031;28;20037;-68
2021/12/03 07:04:06;;;;;;;6.10;4.20;;;-0.60;99.90;;;;;;5040982;28;20470;-67
2021/12/03 07:06:32;;;;;;;7.88;4.50;;;-0.60;99.90;;;;;;5040265;28;20033;-67
2021/12/03 07:08:58;;;;;;;7.85;4.38;;;-0.60;99.90;;;;;;5044128;28;20025;-67
2021/12/03 07:11:23;;;;;;;7.72;4.45;;;-0.50;99.90;;;;;;5047066;28;20497;-68
2021/12/03 07:13:49;;;;;;;11.90;5.25;;;-0.60;99.90;;;;;;5046318;28;20033;-67
2021/12/03 07:16:14;;;;;;;10.25;4.40;;;-0.50;99.90;;;;;;5044181;28;20670;-71
2021/12/03 07:18:42;;;;;;;10.05;6.40;;;-0.60;99.90;;;;;;4958950;28;20128;-68
2021/12/03 07:21:08;;;;;;;19.52;7.82;;;-0.60;99.90;;;;;;5043916;28;20030;-67
2021/12/03 07:23:34;;;;;;;13.27;6.53;;;-0.60;99.90;;;;;;5046013;28;20029;-68
2021/12/03 07:26:02;;;;;;;18.45;6.90;;;-0.60;99.90;;;;;;5040766;28;21647;-68
2021/12/03 07:28:28;;;;;;;12.00;5.25;;;-0.60;99.90;;;;;;5024636;28;20033;-66
2021/12/03 07:30:53;;;;;;;8.02;4.43;;;-0.60;99.90;;;;;;5043759;28;20041;-68
2021/12/03 07:33:19;;;;;;;11.50;6.07;;;-0.70;99.90;;;;;;5046715;28;20044;-67
2021/12/03 07:35:45;;;;;;;7.38;4.35;;;-0.70;99.90;;;;;;5043558;28;20032;-68
2021/12/03 07:38:15;;;;;;;9.20;5.38;;;-0.80;99.90;;;;;;5043356;28;20100;-67
2021/12/03 07:40:42;;;;;;;7.20;4.13;;;-0.80;99.90;;;;;;5046345;28;20038;-67
2021/12/03 07:43:08;;;;;;;16.77;5.55;;;-0.80;99.90;;;;;;5039339;28;20025;-68
2021/12/03 07:45:35;;;;;;;11.27;4.75;;;-0.80;99.90;;;;;;5025963;28;20028;-68
2021/12/03 07:48:01;;;;;;;6.70;4.50;;;-0.70;99.90;;;;;;5033608;28;20033;-68
2021/12/03 07:50:26;;;;;;;8.65;4.55;;;-0.70;99.90;;;;;;5040577;28;20036;-66
2021/12/03 07:52:52;;;;;;;5.53;3.95;;;-0.70;99.90;;;;;;5047067;28;20033;-67
2021/12/03 07:55:18;;;;;;;7.85;4.07;;;-0.70;99.90;;;;;;5040692;28;20056;-68
2021/12/03 07:57:43;;;;;;;6.43;3.97;;;-0.70;99.90;;;;;;5028784;28;20168;-68
2021/12/03 08:00:10;;;;;;;7.15;4.10;;;-0.60;99.90;;;;;;5045172;28;20437;-67
2021/12/03 08:02:35;;;;;;;8.40;4.53;;;-0.60;99.90;;;;;;5026030;28;20052;-67
2021/12/03 08:05:01;;;;;;;7.25;4.32;;;-0.60;99.90;;;;;;5039257;28;20033;-67
2021/12/03 08:07:27;;;;;;;6.20;4.53;;;-0.60;99.90;;;;;;5039853;28;20033;-66
2021/12/03 08:09:53;;;;;;;8.27;5.15;;;-0.60;99.90;;;;;;5024273;28;20036;-66
2021/12/03 08:12:19;;;;;;;7.20;4.22;;;-0.50;99.90;;;;;;5044827;28;20367;-67
2021/12/03 08:14:44;;;;;;;5.55;4.25;;;-0.50;99.90;;;;;;5045310;28;21596;-67
2021/12/03 08:17:10;;;;;;;6.95;4.40;;;-0.50;99.90;;;;;;5027046;28;20124;-67
2021/12/03 08:19:36;;;;;;;8.02;4.65;;;-0.50;99.90;;;;;;5040988;28;20024;-71
2021/12/03 08:22:12;;;;;;;7.85;4.35;;;-0.50;99.90;;;;;;5038231;28;20107;-67
2021/12/03 08:24:38;;;;;;;9.20;5.18;;;-0.40;99.90;;;;;;5043772;28;20025;-67
2021/12/03 08:27:03;;;;;;;6.43;4.25;;;-0.40;99.90;;;;;;5039469;28;20029;-68
2021/12/03 08:29:29;;;;;;;6.68;4.35;;;-0.40;99.90;;;;;;5021484;28;20036;-67
2021/12/03 08:31:55;;;;;;;12.25;5.05;;;-0.40;99.90;;;;;;5038865;28;20037;-68
2021/12/03 08:34:20;;;;;;;7.18;4.72;;;-0.40;99.90;;;;;;5041516;28;20108;-67
2021/12/03 08:36:46;;;;;;;7.20;5.22;;;-0.30;99.90;;;;;;5043299;28;20029;-68
2021/12/03 08:39:12;;;;;;;9.60;5.10;;;-0.30;99.90;;;;;;5040361;28;20086;-67
2021/12/03 08:41:38;;;;;;;8.25;5.50;;;-0.30;99.90;;;;;;5043460;28;20044;-66
2021/12/03 08:44:04;;;;;;;7.03;4.35;;;-0.30;99.90;;;;;;5025794;28;20036;-66
2021/12/03 08:49:05;;;;;;;8.70;5.50;;;-0.20;99.90;;;;;;5046181;28;20742;-67
2021/12/03 08:51:37;;;;;;;7.25;4.70;;;-0.20;99.90;;;;;;5048503;28;20055;-67
2021/12/03 08:56:47;;;;;;;8.15;4.95;;;-0.20;99.90;;;;;;5040407;28;20048;-67
2021/12/03 08:59:15;;;;;;;7.70;4.38;;;-0.20;99.90;;;;;;5043892;28;20024;-68
2021/12/03 09:01:41;;;;;;;6.50;4.75;;;-0.10;99.90;;;;;;5040920;28;20025;-67
2021/12/03 09:04:07;;;;;;;6.78;4.65;;;-0.10;99.90;;;;;;5038455;28;20085;-68
2021/12/03 09:06:33;;;;;;;6.60;4.78;;;-0.10;99.90;;;;;;5037986;28;20024;-68
2021/12/03 09:08:59;;;;;;;6.50;3.75;;;-0.10;99.90;;;;;;5039487;28;20363;-66
2021/12/03 09:11:25;;;;;;;5.43;3.70;;;-0.10;99.90;;;;;;5024792;28;20055;-68
2021/12/03 09:13:52;;;;;;;8.25;4.75;;;-0.10;99.90;;;;;;5036622;28;20378;-67
2021/12/03 09:16:20;;;;;;;5.43;3.83;;;0.00;99.90;;;;;;5036818;28;20029;-67
2021/12/03 09:18:47;;;;;;;7.27;4.37;;;0.00;99.90;;;;;;5023954;28;20128;-68
2021/12/03 09:21:17;;;;;;;9.25;4.95;;;0.00;99.90;;;;;;5003591;28;21041;-68
2021/12/03 09:26:14;;;;;;;5.32;3.72;;;0.00;99.90;;;;;;5027463;28;20025;-67
2021/12/03 09:28:43;;;;;;;7.35;4.10;;;0.10;99.90;;;;;;5026616;28;20033;-68
2021/12/03 09:31:12;;;;;;;7.22;4.20;;;0.10;99.90;;;;;;5027022;28;20048;-68
2021/12/03 09:33:44;;;;;;;4.22;3.53;;;0.10;99.90;;;;;;5024947;28;20462;-68
2021/12/03 09:36:10;;;;;;;5.22;4.22;;;0.20;99.90;;;;;;5022368;28;20498;-67
2021/12/03 09:38:37;;;;;;;6.78;4.72;;;0.10;99.90;;;;;;5030363;28;20029;-68
2021/12/03 09:41:07;;;;;;;6.38;4.72;;;0.20;99.90;;;;;;5028075;28;20578;-67
2021/12/03 09:43:36;;;;;;;7.82;4.85;;;0.20;99.90;;;;;;5024764;28;20022;-67
2021/12/03 09:46:11;;;;;;;5.15;3.42;;;0.20;99.90;;;;;;5024828;28;20028;-69
2021/12/03 09:51:27;;;;;;;4.93;3.88;;;0.30;99.90;;;;;;4990425;28;20057;-67
2021/12/03 09:56:30;;;;;;;4.85;3.63;;;0.30;99.90;;;;;;5024204;28;20026;-67
2021/12/03 10:04:33;;;;;;;6.38;3.35;;;0.30;99.90;;;;;;5023987;28;20037;-69
2021/12/03 10:15:04;;;;;;;5.57;2.95;;;0.40;99.90;;;;;;5025231;28;19923;-67
2021/12/03 10:17:52;;;;;;;4.72;3.60;;;0.40;99.90;;;;;;5032094;28;20734;-67
2021/12/03 10:20:29;;;;;;;;;;;0.50;99.90;;;;;;5045457;28;20531;-67
2021/12/03 10:39:22;;;;;;;3.47;3.17;;;0.60;99.90;;;;;;5043090;28;20078;-67
2021/12/03 10:42:00;;;;;;;7.00;2.92;;;0.60;99.90;;;;;;5046619;28;20025;-67
2021/12/03 10:47:16;;;;;;;4.70;3.15;;;0.60;99.90;;;;;;5041273;28;20029;-67
2021/12/03 10:49:49;;;;;;;6.10;2.97;;;0.60;99.90;;;;;;5040551;28;20705;-67
2021/12/03 11:15:24;;;;;;;3.90;3.28;;;0.70;99.90;;;;;;5038245;28;20124;-68
2021/12/03 11:48:08;;;;;;;7.35;4.32;;;0.80;99.90;;;;;;5037779;28;20112;-68
2021/12/03 13:18:12;;;;;;;3.50;2.53;;;1.60;99.90;;;;;;5050181;28;21261;-67
2021/12/03 14:05:03;;;;;;;3.97;2.80;;;1.50;99.90;;;;;;5054133;28;20032;-67
2021/12/03 14:37:31;;;;;;;2.78;2.58;;;1.60;99.90;;;;;;5052921;28;20037;-68
2021/12/03 14:45:40;;;;;;;6.60;3.30;;;1.60;99.90;;;;;;5049213;28;20090;-68
2021/12/03 14:56:11;;;;;;;3.78;3.13;;;1.40;99.90;;;;;;5050381;28;20040;-67
2021/12/03 14:58:54;;;;;;;4.15;2.33;;;1.30;99.90;;;;;;5052723;28;20494;-68
2021/12/03 15:04:27;;;;;;;9.27;4.03;;;1.30;99.90;;;;;;5052120;28;20021;-68
2021/12/03 15:09:42;;;;;;;3.85;2.63;;;1.30;99.90;;;;;;5051645;28;20029;-68
2021/12/03 15:13:22;;;;;;;4.55;3.17;;;1.20;99.90;;;;;;5053160;28;20055;-67
2021/12/03 15:26:01;;;;;;;5.97;3.35;;;1.20;99.90;;;;;;5053465;28;20140;-67
2021/12/03 15:33:54;;;;;;;5.20;2.97;;;1.10;99.90;;;;;;5049308;28;20040;-67
2021/12/03 16:08:21;;;;;;;2.85;2.40;;;0.80;99.90;;;;;;5047256;28;20037;-68
2021/12/03 16:13:57;;;;;;;4.88;4.05;;;0.70;99.90;;;;;;4981429;28;20034;-68
2021/12/03 16:19:04;;;;;;;7.57;4.35;;;0.70;99.90;;;;;;5048797;28;20128;-68
2021/12/03 16:51:36;;;;;;;6.22;4.25;;;0.40;99.90;;;;;;5046467;28;20489;-67
2021/12/03 16:54:09;;;;;;;8.65;5.28;;;0.30;99.90;;;;;;5051343;28;20382;-67
2021/12/03 16:56:42;;;;;;;5.53;4.22;;;0.30;99.90;;;;;;5046478;28;20036;-67
2021/12/03 16:59:08;;;;;;;5.10;4.30;;;0.30;99.90;;;;;;5054920;28;20366;-67
2021/12/03 17:19:48;;;;;;;5.93;3.55;;;0.30;99.90;;;;;;5047206;28;20495;-68
2021/12/03 17:51:47;;;;;;;5.25;4.70;;;0.20;99.90;;;;;;5022733;28;20037;-68
2021/12/03 17:56:55;;;;;;;6.55;4.50;;;0.20;99.90;;;;;;5052315;28;20025;-68
2021/12/03 17:59:26;;;;;;;10.70;4.97;;;0.20;99.90;;;;;;5045899;28;20561;-68
2021/12/03 18:07:34;;;;;;;7.70;4.67;;;0.10;99.90;;;;;;5048599;28;20041;-68
2021/12/03 18:18:39;;;;;;;7.15;4.38;;;0.10;99.90;;;;;;5047253;28;20041;-68
2021/12/03 18:48:19;;;;;;;9.55;5.65;;;-0.30;99.90;;;;;;5044796;28;22475;-67
2021/12/03 18:56:03;;;;;;;5.60;3.92;;;-0.30;99.90;;;;;;5049272;28;20039;-67
2021/12/03 18:58:30;;;;;;;8.95;4.35;;;-0.30;99.90;;;;;;5047768;28;20052;-67
2021/12/03 19:00:58;;;;;;;6.88;4.40;;;-0.20;99.90;;;;;;5046014;28;20451;-68
2021/12/03 19:06:22;;;;;;;8.48;4.78;;;-0.20;99.90;;;;;;5050848;28;20712;-66
2021/12/03 19:11:27;;;;;;;9.18;4.53;;;-0.20;99.90;;;;;;5056517;28;20120;-66
2021/12/03 19:13:53;;;;;;;5.68;4.22;;;-0.20;99.90;;;;;;5049109;28;20065;-67
2021/12/03 19:16:23;;;;;;;7.72;4.43;;;-0.30;99.90;;;;;;5048261;28;20391;-67
2021/12/03 19:18:52;;;;;;;8.85;4.50;;;-0.30;99.90;;;;;;5041360;28;20779;-67
2021/12/03 19:21:23;;;;;;;8.13;4.65;;;-0.40;99.90;;;;;;5049713;28;20032;-66
2021/12/03 19:23:55;;;;;;;5.63;4.07;;;-0.30;99.90;;;;;;5046585;28;21860;-67
2021/12/03 19:26:21;;;;;;;6.68;4.72;;;-0.40;99.90;;;;;;5043526;28;20052;-66
2021/12/03 19:28:49;;;;;;;10.63;5.45;;;-0.40;99.90;;;;;;5021893;28;20044;-67
2021/12/03 19:31:15;;;;;;;7.25;4.03;;;-0.40;99.90;;;;;;5032679;28;20037;-67
2021/12/03 19:33:41;;;;;;;8.00;5.25;;;-0.40;99.90;;;;;;5047828;28;20025;-66
2021/12/03 19:36:07;;;;;;;7.40;4.43;;;-0.40;99.90;;;;;;5052299;28;20115;-66
2021/12/03 19:38:37;;;;;;;7.70;5.35;;;-0.40;99.90;;;;;;5048152;28;20017;-67
2021/12/03 19:41:11;;;;;;;6.72;5.72;;;-0.40;99.90;;;;;;5027983;28;20311;-67
2021/12/03 19:43:43;;;;;;;8.35;5.35;;;-0.40;99.90;;;;;;5047766;28;20021;-67
2021/12/03 19:46:13;;;;;;;7.90;5.20;;;-0.40;99.90;;;;;;5044716;28;20398;-67
2021/12/03 19:48:50;;;;;;;6.38;4.90;;;-0.40;99.90;;;;;;5048261;28;20473;-67
2021/12/03 19:51:19;;;;;;;5.70;4.40;;;-0.50;99.90;;;;;;5044896;28;20036;-66
2021/12/03 19:53:54;;;;;;;7.68;5.13;;;-0.50;99.90;;;;;;5033910;28;20156;-66
2021/12/03 19:56:20;;;;;;;7.63;4.75;;;-0.60;99.90;;;;;;5049969;28;20450;-67
2021/12/03 19:58:46;;;;;;;6.93;4.70;;;-0.70;99.90;;;;;;5042322;28;20284;-67
2021/12/03 20:01:12;;;;;;;7.95;5.05;;;-0.70;99.90;;;;;;5050455;28;20482;-67
2021/12/03 20:03:37;;;;;;;6.93;5.30;;;-0.80;99.90;;;;;;5045720;28;20041;-67
2021/12/03 20:06:03;;;;;;;7.03;4.53;;;-0.90;99.90;;;;;;5051514;28;20028;-67
2021/12/03 20:08:30;;;;;;;7.35;4.57;;;-0.80;99.90;;;;;;5035311;28;20039;-67
2021/12/03 20:11:00;;;;;;;10.25;5.57;;;-0.90;99.90;;;;;;5033776;28;20032;-67
2021/12/03 20:13:27;;;;;;;6.40;4.82;;;-1.00;99.90;;;;;;5046128;28;20061;-67
2021/12/03 20:18:42;;;;;;;8.23;5.55;;;-1.00;99.90;;;;;;5039851;28;20561;-68
2021/12/03 20:21:10;;;;;;;11.98;6.40;;;-1.10;99.90;;;;;;5045753;28;20032;-67
2021/12/03 20:28:56;;;;;;;6.65;5.07;;;-1.20;99.90;;;;;;5043597;28;20102;-67
2021/12/03 20:31:27;;;;;;;6.82;5.25;;;-1.30;99.90;;;;;;5034935;28;20072;-68
2021/12/03 20:34:00;;;;;;;8.00;4.75;;;-1.30;99.90;;;;;;5030766;28;20035;-67
2021/12/03 20:36:48;;;;;;;10.18;4.93;;;-1.40;99.90;;;;;;5060974;28;20119;-67
2021/12/03 20:39:24;;;;;;;6.43;4.72;;;-1.40;99.90;;;;;;5034559;28;20087;-67
2021/12/03 20:42:09;;;;;;;5.95;4.95;;;-1.40;99.90;;;;;;5046513;28;20498;-67
2021/12/03 21:13:46;;;;;;;5.05;2.95;;;-1.30;99.90;;;;;;5048006;28;20542;-67
2021/12/03 21:16:40;;;;;;;4.63;4.13;;;-1.30;99.90;;;;;;5042547;28;20092;-68